Rancho Taos, New Mexico
Current Conditions -  °F | °C
As of 3:35 AM on Wednesday 22 Oct 2014 (Local Time) from KSKX Reporting Station
Overcast Overcast  
Wind Chill: 43°   Ceiling: 2300
Heat Index: 46°   Visibility: 10mi
Dew Point: 41°   Wind: 7mph
Humidity: 81%   Direction: 60°ENE
Pressure: 30.19"   Gusts: NA
Location:  36.2692°N, 105.543°W
Report Text: KSKX 220935Z AUTO 06006KT 10SM BKN023 BKN030 OVC035 08/05 A3019 RMK AO1
Loading
Personal Weather Stations






























Interactive Weather Map
Tropical Storm Tracking
New forecast layout! Learn more

10-Day Weather Forecast

Advertisements
Track Severe Weather on mobile